Time;durP1;ratioP1;P1;durP2;ratioP2;P2;SDS_P1;SDS_P2;PMS_P1;PMS_P2;Temp;Humidity;BMP_temperature;BMP_pressure;BME280_temperature;BME280_humidity;BME280_pressure;Samples;Min_cycle;Max_cycle;Signal;HPM_P1;HPM_P2
2022/05/02 00:01:08;;;;;;;5.57;4.90;;;;;;;;;;5000182;28;20299;-19
2022/05/02 00:03:35;;;;;;;7.20;5.05;;;;;;;;;;4999997;28;20294;-19
2022/05/02 00:06:06;;;;;;;5.38;4.85;;;;;;;;;;5001619;28;20623;-19
2022/05/02 00:08:33;;;;;;;5.97;4.80;;;;;;;;;;5000522;28;20996;-19
2022/05/02 00:11:01;;;;;;;6.40;5.10;;;;;;;;;;5002521;28;20235;-19
2022/05/02 00:13:28;;;;;;;5.35;4.80;;;;;;;;;;5000269;28;20696;-19
2022/05/02 00:15:55;;;;;;;5.97;5.07;;;;;;;;;;5000389;28;20231;-19
2022/05/02 00:18:23;;;;;;;6.75;5.15;;;;;;;;;;5001754;28;20231;-19
2022/05/02 00:20:50;;;;;;;6.03;5.30;;;;;;;;;;5002470;28;20249;-19
2022/05/02 00:23:19;;;;;;;5.80;5.20;;;;;;;;;;5003150;28;20237;-19
2022/05/02 00:25:46;;;;;;;5.63;5.00;;;;;;;;;;4999389;28;20254;-19
2022/05/02 00:28:14;;;;;;;6.50;4.82;;;;;;;;;;5002867;28;20228;-19
2022/05/02 00:30:41;;;;;;;5.82;5.22;;;;;;;;;;5004330;28;20238;-19
2022/05/02 00:33:09;;;;;;;5.70;4.90;;;;;;;;;;5000606;28;20766;-19
2022/05/02 00:35:36;;;;;;;5.28;4.78;;;;;;;;;;5001659;28;20232;-19
2022/05/02 00:38:05;;;;;;;5.72;5.22;;;;;;;;;;5000337;28;20247;-19
2022/05/02 00:40:33;;;;;;;6.18;4.72;;;;;;;;;;5000701;28;20727;-19
2022/05/02 00:43:01;;;;;;;5.35;4.82;;;;;;;;;;4998957;28;20229;-19
2022/05/02 00:45:28;;;;;;;4.70;4.30;;;;;;;;;;5004072;28;20728;-19
2022/05/02 00:47:56;;;;;;;5.28;4.78;;;;;;;;;;5002601;28;20243;-19
2022/05/02 00:50:29;;;;;;;5.65;5.15;;;;;;;;;;5001544;28;20240;-19
2022/05/02 00:52:57;;;;;;;5.50;4.88;;;;;;;;;;5000078;28;20232;-19
2022/05/02 00:55:24;;;;;;;5.20;4.70;;;;;;;;;;5002515;28;20234;-19
2022/05/02 00:57:53;;;;;;;6.70;5.40;;;;;;;;;;4999145;28;20244;-19
2022/05/02 01:00:20;;;;;;;5.72;4.70;;;;;;;;;;5001717;28;20715;-19
2022/05/02 01:02:47;;;;;;;5.47;4.97;;;;;;;;;;5005553;28;20223;-20
2022/05/02 01:05:15;;;;;;;5.45;4.80;;;;;;;;;;5004650;28;20303;-19
2022/05/02 01:07:41;;;;;;;5.95;4.72;;;;;;;;;;5005450;28;21076;-19
2022/05/02 01:10:09;;;;;;;5.38;4.85;;;;;;;;;;5005643;28;20234;-20
2022/05/02 01:12:36;;;;;;;5.50;4.93;;;;;;;;;;5005268;28;20235;-19
2022/05/02 01:15:05;;;;;;;7.03;5.20;;;;;;;;;;5002969;28;20239;-19
2022/05/02 01:17:33;;;;;;;4.97;4.50;;;;;;;;;;5000806;28;20228;-19
2022/05/02 01:20:00;;;;;;;6.32;5.20;;;;;;;;;;5003614;28;20232;-19
2022/05/02 01:22:29;;;;;;;4.88;4.43;;;;;;;;;;5003005;28;20259;-19
2022/05/02 01:24:56;;;;;;;5.35;4.72;;;;;;;;;;5004089;28;20239;-19
2022/05/02 01:27:23;;;;;;;5.57;5.00;;;;;;;;;;5003448;28;20235;-19
2022/05/02 01:29:51;;;;;;;5.28;4.78;;;;;;;;;;5004915;28;20238;-19
2022/05/02 01:32:18;;;;;;;5.72;5.18;;;;;;;;;;5005100;28;20232;-19
2022/05/02 01:34:45;;;;;;;5.20;4.70;;;;;;;;;;5005728;28;20227;-19
2022/05/02 01:37:13;;;;;;;5.93;4.70;;;;;;;;;;5008529;28;20236;-19
2022/05/02 01:39:42;;;;;;;5.63;4.50;;;;;;;;;;5004529;28;21045;-19
2022/05/02 01:42:10;;;;;;;5.85;4.80;;;;;;;;;;5001735;28;20229;-19
2022/05/02 01:44:37;;;;;;;4.90;4.40;;;;;;;;;;5003856;28;20810;-19
2022/05/02 01:47:05;;;;;;;5.25;4.60;;;;;;;;;;5002555;28;20726;-19
2022/05/02 01:49:32;;;;;;;5.88;4.70;;;;;;;;;;5004156;28;20232;-19
2022/05/02 01:52:00;;;;;;;5.22;4.72;;;;;;;;;;5003045;28;20239;-19
2022/05/02 01:54:27;;;;;;;5.78;4.80;;;;;;;;;;5002924;28;21038;-19
2022/05/02 01:56:56;;;;;;;4.78;4.22;;;;;;;;;;5003682;28;20239;-19
2022/05/02 01:59:23;;;;;;;4.65;4.22;;;;;;;;;;5002414;28;21025;-19
2022/05/02 02:01:51;;;;;;;5.05;4.55;;;;;;;;;;5001322;28;20223;-19
2022/05/02 02:07:04;;;;;;;6.18;4.90;;;;;;;;;;5000735;28;20232;-19
2022/05/02 02:09:31;;;;;;;5.25;4.72;;;;;;;;;;5002912;28;20234;-19
2022/05/02 02:12:00;;;;;;;5.07;4.45;;;;;;;;;;5005031;28;20711;-19
2022/05/02 02:14:27;;;;;;;4.70;4.22;;;;;;;;;;5005345;28;20231;-19
2022/05/02 02:16:54;;;;;;;5.35;4.63;;;;;;;;;;5003341;28;20737;-19
2022/05/02 02:19:22;;;;;;;4.75;4.30;;;;;;;;;;5001346;28;20327;-19
2022/05/02 02:21:49;;;;;;;5.13;4.63;;;;;;;;;;4998808;28;20255;-19
2022/05/02 02:24:16;;;;;;;4.97;4.47;;;;;;;;;;5004079;28;20247;-19
2022/05/02 02:26:44;;;;;;;6.70;5.10;;;;;;;;;;5000667;28;20711;-19
2022/05/02 02:29:12;;;;;;;5.28;4.78;;;;;;;;;;5001358;28;20232;-19
2022/05/02 02:31:40;;;;;;;5.13;4.57;;;;;;;;;;5001584;28;20704;-19
2022/05/02 02:34:08;;;;;;;5.20;4.63;;;;;;;;;;5002435;28;20228;-19
2022/05/02 02:36:35;;;;;;;6.72;4.55;;;;;;;;;;5003156;28;20240;-19
2022/05/02 02:39:03;;;;;;;5.05;4.55;;;;;;;;;;5002132;28;20235;-19
2022/05/02 02:41:30;;;;;;;5.13;4.40;;;;;;;;;;5000464;28;20771;-19
2022/05/02 02:43:58;;;;;;;5.60;5.00;;;;;;;;;;5001043;28;20240;-19
2022/05/02 02:46:26;;;;;;;6.05;4.93;;;;;;;;;;5004631;28;20243;-19
2022/05/02 02:48:54;;;;;;;5.00;4.50;;;;;;;;;;5001361;28;20228;-19
2022/05/02 02:51:21;;;;;;;5.05;4.55;;;;;;;;;;5003377;28;20234;-19
2022/05/02 02:53:51;;;;;;;4.90;4.40;;;;;;;;;;5000392;28;20227;-19
2022/05/02 02:56:18;;;;;;;5.22;4.63;;;;;;;;;;5006841;28;20224;-19
2022/05/02 02:58:45;;;;;;;5.10;4.60;;;;;;;;;;5000770;28;20232;-19
2022/05/02 03:01:13;;;;;;;5.22;4.72;;;;;;;;;;5001380;28;20224;-19
2022/05/02 03:03:42;;;;;;;4.80;4.40;;;;;;;;;;5000794;28;20236;-19
2022/05/02 03:06:08;;;;;;;4.93;4.43;;;;;;;;;;5001951;28;20235;-19
2022/05/02 03:08:39;;;;;;;5.07;4.57;;;;;;;;;;5001062;28;20970;-19
2022/05/02 03:11:07;;;;;;;5.03;4.53;;;;;;;;;;5002629;28;20631;-19
2022/05/02 03:13:34;;;;;;;5.15;4.55;;;;;;;;;;5001224;28;20238;-19
2022/05/02 03:16:02;;;;;;;5.18;4.50;;;;;;;;;;5004047;28;20238;-19
2022/05/02 03:18:31;;;;;;;4.63;4.22;;;;;;;;;;5005489;28;20237;-19
2022/05/02 03:20:59;;;;;;;5.45;4.70;;;;;;;;;;4997215;28;20240;-19
2022/05/02 03:23:27;;;;;;;5.43;4.93;;;;;;;;;;5001127;28;20235;-19
2022/05/02 03:25:54;;;;;;;5.47;4.82;;;;;;;;;;5004805;28;20235;-19
2022/05/02 03:28:22;;;;;;;5.10;4.50;;;;;;;;;;5002473;28;20228;-19
2022/05/02 03:30:49;;;;;;;5.53;5.00;;;;;;;;;;5004923;28;20698;-19
2022/05/02 03:33:16;;;;;;;5.00;4.50;;;;;;;;;;5003372;28;20231;-19
2022/05/02 03:35:44;;;;;;;4.93;4.18;;;;;;;;;;5003972;28;20231;-19
2022/05/02 03:38:12;;;;;;;5.63;4.38;;;;;;;;;;4999671;28;20232;-19
2022/05/02 03:40:40;;;;;;;4.70;4.20;;;;;;;;;;5002628;28;20710;-19
2022/05/02 03:43:07;;;;;;;4.95;4.45;;;;;;;;;;4999271;28;20228;-19
2022/05/02 03:45:36;;;;;;;4.68;4.28;;;;;;;;;;5001071;28;20270;-19
2022/05/02 03:48:03;;;;;;;4.90;4.35;;;;;;;;;;5003048;28;20680;-19
2022/05/02 03:50:30;;;;;;;5.45;4.63;;;;;;;;;;5002167;28;20241;-19
2022/05/02 03:52:58;;;;;;;5.47;4.32;;;;;;;;;;5002886;28;20226;-19
2022/05/02 03:55:26;;;;;;;4.90;4.30;;;;;;;;;;5001900;28;20234;-19
2022/05/02 03:57:54;;;;;;;5.53;4.50;;;;;;;;;;5000157;28;20239;-19
2022/05/02 04:00:21;;;;;;;4.85;4.32;;;;;;;;;;5001206;28;20242;-19
2022/05/02 04:02:51;;;;;;;4.80;4.30;;;;;;;;;;4999516;28;20234;-19
2022/05/02 04:05:19;;;;;;;5.40;4.90;;;;;;;;;;4999713;28;20244;-19
2022/05/02 04:07:47;;;;;;;5.50;4.82;;;;;;;;;;5002558;28;20740;-19
2022/05/02 04:10:14;;;;;;;6.07;4.82;;;;;;;;;;4999351;28;20704;-19
2022/05/02 04:12:43;;;;;;;5.15;4.40;;;;;;;;;;5002724;28;20239;-19
2022/05/02 04:15:11;;;;;;;4.88;4.40;;;;;;;;;;5000348;28;20230;-19
2022/05/02 04:17:38;;;;;;;4.63;4.22;;;;;;;;;;5003857;28;20247;-19
2022/05/02 04:20:06;;;;;;;5.15;4.57;;;;;;;;;;5001426;28;20638;-19
2022/05/02 04:22:33;;;;;;;6.05;4.72;;;;;;;;;;4999154;28;20243;-19
2022/05/02 04:25:01;;;;;;;5.50;4.70;;;;;;;;;;5000871;28;20238;-19
2022/05/02 04:27:28;;;;;;;5.15;4.60;;;;;;;;;;5001512;28;20235;-19
2022/05/02 04:29:57;;;;;;;5.93;4.65;;;;;;;;;;4999752;28;20236;-19
2022/05/02 04:32:24;;;;;;;4.93;4.43;;;;;;;;;;5000560;28;20236;-19
2022/05/02 04:34:53;;;;;;;6.13;4.95;;;;;;;;;;5005162;28;20234;-19
2022/05/02 04:37:20;;;;;;;5.80;4.88;;;;;;;;;;5002995;28;20243;-20
2022/05/02 04:39:47;;;;;;;5.13;4.63;;;;;;;;;;5005783;28;20235;-20
2022/05/02 04:42:15;;;;;;;5.15;4.65;;;;;;;;;;5005786;28;20833;-20
2022/05/02 04:44:42;;;;;;;4.93;4.35;;;;;;;;;;5001727;28;20240;-19
2022/05/02 04:47:11;;;;;;;4.70;4.20;;;;;;;;;;5004647;28;20245;-20
2022/05/02 04:49:38;;;;;;;5.03;4.50;;;;;;;;;;5004939;28;20231;-19
2022/05/02 04:52:06;;;;;;;5.53;4.50;;;;;;;;;;5001752;28;20232;-20
2022/05/02 04:54:33;;;;;;;5.40;4.65;;;;;;;;;;5003458;28;20318;-20
2022/05/02 04:57:01;;;;;;;5.40;4.50;;;;;;;;;;5007403;28;20235;-20
2022/05/02 04:59:30;;;;;;;5.22;4.72;;;;;;;;;;5003801;28;20258;-20
2022/05/02 05:01:58;;;;;;;4.88;4.20;;;;;;;;;;5004999;28;20232;-19
2022/05/02 05:04:27;;;;;;;4.60;4.20;;;;;;;;;;5004437;28;20220;-20
2022/05/02 05:06:54;;;;;;;7.05;4.40;;;;;;;;;;5002126;28;20240;-19
2022/05/02 05:09:21;;;;;;;4.53;4.13;;;;;;;;;;5009338;28;20233;-19
2022/05/02 05:11:51;;;;;;;4.22;3.83;;;;;;;;;;5001548;28;20243;-20
2022/05/02 05:17:09;;;;;;;5.18;3.80;;;;;;;;;;5004955;28;20730;-18
2022/05/02 05:19:50;;;;;;;4.38;3.78;;;;;;;;;;5004017;28;20232;-18
2022/05/02 05:22:21;;;;;;;3.88;3.50;;;;;;;;;;5001348;28;20348;-20
2022/05/02 05:25:12;;;;;;;5.47;3.50;;;;;;;;;;5001690;28;20699;-20
2022/05/02 05:27:45;;;;;;;4.05;3.50;;;;;;;;;;5005785;28;20742;-19
2022/05/02 05:30:12;;;;;;;3.78;3.40;;;;;;;;;;5002413;28;20988;-19
2022/05/02 05:32:40;;;;;;;3.55;3.25;;;;;;;;;;5005913;28;20233;-20
2022/05/02 05:35:10;;;;;;;4.47;3.78;;;;;;;;;;5001404;28;20346;-20
2022/05/02 05:37:42;;;;;;;3.95;3.40;;;;;;;;;;5003696;28;20243;-20
2022/05/02 05:40:12;;;;;;;4.28;3.88;;;;;;;;;;5001683;28;20227;-19
2022/05/02 05:42:40;;;;;;;3.90;3.50;;;;;;;;;;5005355;28;20227;-19
2022/05/02 05:45:10;;;;;;;3.67;3.17;;;;;;;;;;4997580;28;20247;-19
2022/05/02 05:47:41;;;;;;;4.78;3.58;;;;;;;;;;5004751;28;20250;-19
2022/05/02 05:50:14;;;;;;;3.70;3.15;;;;;;;;;;5001735;28;20239;-19
2022/05/02 05:52:45;;;;;;;4.50;3.05;;;;;;;;;;5004443;28;20738;-19
2022/05/02 05:55:13;;;;;;;4.85;3.17;;;;;;;;;;5004964;28;20239;-19
2022/05/02 05:57:43;;;;;;;5.18;3.50;;;;;;;;;;5001455;28;20262;-19
2022/05/02 06:00:11;;;;;;;3.60;3.10;;;;;;;;;;5007408;28;20231;-19
2022/05/02 06:02:49;;;;;;;3.75;3.22;;;;;;;;;;5002270;28;20236;-19
2022/05/02 06:05:18;;;;;;;3.90;3.05;;;;;;;;;;5000839;28;20240;-19
2022/05/02 06:07:46;;;;;;;3.70;3.30;;;;;;;;;;5000984;28;20236;-19
2022/05/02 06:10:14;;;;;;;3.28;2.97;;;;;;;;;;5005055;28;20716;-19
2022/05/02 06:12:41;;;;;;;6.03;2.97;;;;;;;;;;4995429;28;20240;-19
2022/05/02 06:20:40;;;;;;;2.97;2.78;;;;;;;;;;5003308;28;21036;-20
2022/05/02 06:23:08;;;;;;;3.40;3.10;;;;;;;;;;5001305;28;20231;-19
2022/05/02 06:25:36;;;;;;;4.03;3.25;;;;;;;;;;5003041;28;20239;-19
2022/05/02 06:28:04;;;;;;;4.15;3.28;;;;;;;;;;5002926;28;20711;-19
2022/05/02 06:30:31;;;;;;;3.05;2.75;;;;;;;;;;5002135;28;20247;-20
2022/05/02 06:32:59;;;;;;;4.38;3.35;;;;;;;;;;5002726;28;20289;-19
2022/05/02 06:35:26;;;;;;;4.72;3.22;;;;;;;;;;5001280;28;20379;-19
2022/05/02 06:37:56;;;;;;;3.35;3.03;;;;;;;;;;5001407;28;20224;-19
2022/05/02 06:40:26;;;;;;;3.65;3.28;;;;;;;;;;5004154;28;20245;-19
2022/05/02 06:42:56;;;;;;;4.35;3.33;;;;;;;;;;5003325;28;20227;-19
2022/05/02 06:45:31;;;;;;;3.92;3.53;;;;;;;;;;5001838;28;20232;-19
2022/05/02 06:48:14;;;;;;;3.83;2.80;;;;;;;;;;5002406;28;20338;-19
2022/05/02 06:50:41;;;;;;;3.63;3.00;;;;;;;;;;5003391;28;20227;-19
2022/05/02 06:53:16;;;;;;;3.22;2.88;;;;;;;;;;5001096;28;20236;-19
2022/05/02 06:55:45;;;;;;;3.20;2.90;;;;;;;;;;5004147;28;20262;-19
2022/05/02 06:58:16;;;;;;;3.38;2.90;;;;;;;;;;5000611;28;20621;-19
2022/05/02 07:00:44;;;;;;;3.70;2.78;;;;;;;;;;5002050;28;20238;-19
2022/05/02 07:03:20;;;;;;;4.43;2.70;;;;;;;;;;5000445;28;20236;-19
2022/05/02 07:05:51;;;;;;;3.55;3.03;;;;;;;;;;5000204;28;20235;-19
2022/05/02 07:08:22;;;;;;;3.45;2.95;;;;;;;;;;5001095;28;20239;-19
2022/05/02 07:10:50;;;;;;;3.20;2.50;;;;;;;;;;5000605;28;20228;-19
2022/05/02 07:13:18;;;;;;;4.00;2.83;;;;;;;;;;5003505;28;20243;-19
2022/05/02 07:15:46;;;;;;;3.25;2.90;;;;;;;;;;5001619;28;20236;-19
2022/05/02 07:18:18;;;;;;;3.65;2.85;;;;;;;;;;4998553;28;21020;-19
2022/05/02 07:20:51;;;;;;;3.25;2.95;;;;;;;;;;4999788;28;20754;-20
2022/05/02 07:23:22;;;;;;;3.20;2.90;;;;;;;;;;5004054;28;20730;-19
2022/05/02 07:25:51;;;;;;;2.90;2.70;;;;;;;;;;5000007;28;20247;-19
2022/05/02 07:28:20;;;;;;;2.88;2.67;;;;;;;;;;4998968;28;20266;-19
2022/05/02 07:30:47;;;;;;;2.50;2.30;;;;;;;;;;5004509;28;20227;-19
2022/05/02 07:33:15;;;;;;;3.13;2.83;;;;;;;;;;5003647;28;20266;-19
2022/05/02 07:35:42;;;;;;;4.03;2.50;;;;;;;;;;5002680;28;20265;-19
2022/05/02 07:38:09;;;;;;;2.97;2.67;;;;;;;;;;5000397;28;20235;-19
2022/05/02 07:41:22;;;;;;;2.65;2.45;;;;;;;;;;4999739;28;20232;-19
2022/05/02 07:43:25;;;;;;;2.65;2.45;;;;;;;;;;5002857;28;20228;-19
2022/05/02 07:45:53;;;;;;;2.97;2.63;;;;;;;;;;5000368;28;20598;-19
2022/05/02 07:48:20;;;;;;;2.60;2.40;;;;;;;;;;4999672;28;20282;-19
2022/05/02 07:50:47;;;;;;;3.50;2.80;;;;;;;;;;5003025;28;20215;-19
2022/05/02 07:53:15;;;;;;;3.47;2.60;;;;;;;;;;5002677;28;20240;-20
2022/05/02 07:55:44;;;;;;;2.70;2.50;;;;;;;;;;4999433;28;20234;-20
2022/05/02 07:58:11;;;;;;;3.83;2.65;;;;;;;;;;4999306;28;20228;-19
2022/05/02 08:00:39;;;;;;;2.90;2.65;;;;;;;;;;5001162;28;20906;-20
2022/05/02 08:03:06;;;;;;;2.50;2.30;;;;;;;;;;5002631;28;20338;-20
2022/05/02 08:05:34;;;;;;;2.72;2.53;;;;;;;;;;5001223;28;20227;-20
2022/05/02 08:08:03;;;;;;;3.33;2.60;;;;;;;;;;5002530;28;20730;-20
2022/05/02 08:10:40;;;;;;;3.30;2.35;;;;;;;;;;5000919;28;20227;-20
2022/05/02 08:13:12;;;;;;;2.70;2.50;;;;;;;;;;5003755;28;20239;-20
2022/05/02 08:15:41;;;;;;;2.75;2.55;;;;;;;;;;5001499;28;20232;-20
2022/05/02 08:18:14;;;;;;;2.75;2.53;;;;;;;;;;5001949;28;20228;-20
2022/05/02 08:20:43;;;;;;;2.72;2.53;;;;;;;;;;4999302;28;20707;-20
2022/05/02 08:28:50;;;;;;;2.55;2.35;;;;;;;;;;5002715;28;20254;-20
2022/05/02 08:31:19;;;;;;;2.58;2.38;;;;;;;;;;5001182;28;20239;-20
2022/05/02 08:33:50;;;;;;;3.30;2.53;;;;;;;;;;5003088;28;21105;-20
2022/05/02 08:36:20;;;;;;;2.72;2.10;;;;;;;;;;4999676;28;21019;-19
2022/05/02 08:38:49;;;;;;;2.85;2.60;;;;;;;;;;4999014;28;20259;-20
2022/05/02 08:41:34;;;;;;;2.72;2.38;;;;;;;;;;4999208;28;20243;-20
2022/05/02 08:44:18;;;;;;;2.50;2.30;;;;;;;;;;4998794;28;21009;-20
2022/05/02 08:46:54;;;;;;;2.83;2.55;;;;;;;;;;5001817;28;20236;-19
2022/05/02 08:49:36;;;;;;;3.42;2.50;;;;;;;;;;4998772;28;20742;-18
2022/05/02 08:52:22;;;;;;;3.13;2.83;;;;;;;;;;5001163;28;20228;-18
2022/05/02 08:54:57;;;;;;;3.03;2.60;;;;;;;;;;5003226;28;20343;-19
2022/05/02 08:57:34;;;;;;;3.15;2.85;;;;;;;;;;5001606;28;20238;-20
2022/05/02 09:00:04;;;;;;;3.03;2.72;;;;;;;;;;5000196;28;20235;-20
2022/05/02 09:02:47;;;;;;;2.90;2.70;;;;;;;;;;5000334;28;21067;-19
2022/05/02 09:05:29;;;;;;;2.88;2.60;;;;;;;;;;4982389;28;20319;-19
2022/05/02 09:08:06;;;;;;;2.45;2.25;;;;;;;;;;4999622;28;20242;-21
2022/05/02 09:10:36;;;;;;;2.70;2.50;;;;;;;;;;5000946;28;20252;-19
2022/05/02 09:13:13;;;;;;;3.03;2.72;;;;;;;;;;4999698;28;20238;-20
2022/05/02 09:15:59;;;;;;;2.83;2.50;;;;;;;;;;5000809;28;20224;-20
2022/05/02 09:18:42;;;;;;;3.25;2.72;;;;;;;;;;4999287;28;20737;-20
2022/05/02 09:21:14;;;;;;;3.40;2.67;;;;;;;;;;5002862;28;20267;-19
2022/05/02 09:24:03;;;;;;;2.97;2.55;;;;;;;;;;5001657;28;20242;-20
2022/05/02 09:26:48;;;;;;;2.60;2.40;;;;;;;;;;5003330;28;20228;-20
2022/05/02 09:29:26;;;;;;;3.08;2.70;;;;;;;;;;5001326;28;20716;-20
2022/05/02 09:31:56;;;;;;;2.95;2.53;;;;;;;;;;5003657;28;20609;-20
2022/05/02 09:34:27;;;;;;;2.75;2.45;;;;;;;;;;5002253;28;20327;-20
2022/05/02 09:36:55;;;;;;;2.85;2.53;;;;;;;;;;5004991;28;20254;-20
2022/05/02 09:39:23;;;;;;;3.30;2.58;;;;;;;;;;5002428;28;20239;-20
2022/05/02 09:42:01;;;;;;;3.13;2.83;;;;;;;;;;5001584;28;20228;-20
2022/05/02 09:50:03;;;;;;;5.30;3.35;;;;;;;;;;5003163;28;20236;-20
2022/05/02 09:52:33;;;;;;;3.65;2.85;;;;;;;;;;5008240;28;20219;-20
2022/05/02 09:58:08;;;;;;;2.92;2.70;;;;;;;;;;5003567;28;20240;-20
2022/05/02 10:03:28;;;;;;;3.97;2.95;;;;;;;;;;5006818;28;20232;-20
2022/05/02 10:05:57;;;;;;;3.42;3.05;;;;;;;;;;5003772;28;20240;-19
2022/05/02 10:08:27;;;;;;;4.18;3.10;;;;;;;;;;5001847;28;20244;-20
2022/05/02 10:10:56;;;;;;;4.72;3.15;;;;;;;;;;5004573;28;20232;-20
2022/05/02 10:13:24;;;;;;;3.85;3.00;;;;;;;;;;5004312;28;20295;-19
2022/05/02 10:15:57;;;;;;;3.42;3.10;;;;;;;;;;5002766;28;20236;-19
2022/05/02 10:18:51;;;;;;;3.45;2.70;;;;;;;;;;5002608;28;20232;-19
2022/05/02 10:21:23;;;;;;;4.15;3.08;;;;;;;;;;5000348;28;20251;-20
2022/05/02 10:23:59;;;;;;;3.25;2.95;;;;;;;;;;5000770;28;20259;-20
2022/05/02 10:26:31;;;;;;;4.10;3.22;;;;;;;;;;5003087;28;20691;-19
2022/05/02 10:29:14;;;;;;;4.88;3.35;;;;;;;;;;5004373;28;20596;-20
2022/05/02 10:31:41;;;;;;;3.40;3.03;;;;;;;;;;5002084;28;20227;-20
2022/05/02 10:34:10;;;;;;;3.42;2.97;;;;;;;;;;5001082;28;20739;-20
2022/05/02 10:36:38;;;;;;;3.03;2.83;;;;;;;;;;5004213;28;20235;-20
2022/05/02 10:39:10;;;;;;;3.13;2.83;;;;;;;;;;5004012;28;20600;-20
2022/05/02 10:41:40;;;;;;;3.35;3.05;;;;;;;;;;4999784;28;20240;-20
2022/05/02 10:44:08;;;;;;;3.00;2.70;;;;;;;;;;5000200;28;20844;-19
2022/05/02 10:46:35;;;;;;;3.22;2.92;;;;;;;;;;5000846;28;20227;-20
2022/05/02 10:49:03;;;;;;;3.30;3.00;;;;;;;;;;5002639;28;20240;-19
2022/05/02 10:51:40;;;;;;;3.05;2.72;;;;;;;;;;5002231;28;20663;-18
2022/05/02 10:54:08;;;;;;;3.63;3.33;;;;;;;;;;5003163;28;20236;-19
2022/05/02 10:56:36;;;;;;;3.38;3.08;;;;;;;;;;5001476;28;21063;-19
2022/05/02 10:59:04;;;;;;;3.22;2.92;;;;;;;;;;4998957;28;20230;-20
2022/05/02 11:01:55;;;;;;;3.83;3.03;;;;;;;;;;5002165;28;20242;-20
2022/05/02 11:04:25;;;;;;;3.40;3.05;;;;;;;;;;4988553;28;20232;-20
2022/05/02 11:06:56;;;;;;;3.72;3.10;;;;;;;;;;5003078;28;20231;-20
2022/05/02 11:09:26;;;;;;;3.30;3.00;;;;;;;;;;5002078;28;20244;-20
2022/05/02 11:11:53;;;;;;;3.13;2.72;;;;;;;;;;5002901;28;20232;-20
2022/05/02 11:14:28;;;;;;;3.38;3.08;;;;;;;;;;5001439;28;20605;-20
2022/05/02 11:16:56;;;;;;;3.30;3.00;;;;;;;;;;5001220;28;20227;-20
2022/05/02 11:22:17;;;;;;;4.80;3.35;;;;;;;;;;4999395;28;20825;-20
2022/05/02 11:24:47;;;;;;;3.38;3.08;;;;;;;;;;5003661;28;20232;-20
2022/05/02 11:27:21;;;;;;;3.08;2.78;;;;;;;;;;5003475;28;20235;-20
2022/05/02 11:29:51;;;;;;;3.78;3.38;;;;;;;;;;4999862;28;20244;-20
2022/05/02 11:32:22;;;;;;;3.85;2.97;;;;;;;;;;5002061;28;20247;-19
2022/05/02 11:34:50;;;;;;;3.67;3.25;;;;;;;;;;5003144;28;20733;-20
2022/05/02 11:37:20;;;;;;;5.15;3.40;;;;;;;;;;4999084;28;20242;-20
2022/05/02 11:39:49;;;;;;;3.35;3.00;;;;;;;;;;4999617;28;20966;-21
2022/05/02 11:42:18;;;;;;;3.97;3.13;;;;;;;;;;5004253;28;20242;-20
2022/05/02 11:44:51;;;;;;;2.80;2.58;;;;;;;;;;5002413;28;21087;-20
2022/05/02 11:47:22;;;;;;;3.75;3.30;;;;;;;;;;5001901;28;20235;-20
2022/05/02 11:49:53;;;;;;;3.78;3.47;;;;;;;;;;4999716;28;20248;-20
2022/05/02 11:52:29;;;;;;;3.67;3.38;;;;;;;;;;5002250;28;20240;-20
2022/05/02 11:54:57;;;;;;;3.78;3.28;;;;;;;;;;5003847;28;20231;-20
2022/05/02 11:57:28;;;;;;;3.25;2.95;;;;;;;;;;5000334;28;20234;-20
2022/05/02 11:59:59;;;;;;;3.85;3.38;;;;;;;;;;5001669;28;20231;-20
2022/05/02 12:02:41;;;;;;;3.45;3.10;;;;;;;;;;4998451;28;20242;-20
2022/05/02 12:05:14;;;;;;;4.80;3.28;;;;;;;;;;4998529;28;20998;-20
2022/05/02 12:07:43;;;;;;;4.15;3.30;;;;;;;;;;5002583;28;20331;-19
2022/05/02 12:10:12;;;;;;;4.95;3.55;;;;;;;;;;4999627;28;20727;-20
2022/05/02 12:12:44;;;;;;;4.00;3.30;;;;;;;;;;5002061;28;20228;-20
2022/05/02 12:15:12;;;;;;;5.47;3.38;;;;;;;;;;4999462;28;20231;-20
2022/05/02 12:17:51;;;;;;;5.68;3.40;;;;;;;;;;5003267;28;20227;-20
2022/05/02 12:20:25;;;;;;;3.35;3.05;;;;;;;;;;4999143;28;20239;-20
2022/05/02 12:22:59;;;;;;;4.88;3.58;;;;;;;;;;4999558;28;20239;-18
2022/05/02 12:25:28;;;;;;;3.83;3.45;;;;;;;;;;5001729;28;21925;-18
2022/05/02 12:27:56;;;;;;;3.60;3.25;;;;;;;;;;5005545;28;20238;-18
2022/05/02 12:30:25;;;;;;;4.22;3.83;;;;;;;;;;5000711;28;20248;-19
2022/05/02 12:32:52;;;;;;;3.97;3.60;;;;;;;;;;4999395;28;20346;-18
2022/05/02 12:35:20;;;;;;;4.38;3.72;;;;;;;;;;5002305;28;20240;-20
2022/05/02 12:37:48;;;;;;;4.28;3.20;;;;;;;;;;5003435;28;20243;-20
2022/05/02 12:40:18;;;;;;;5.32;3.58;;;;;;;;;;5002708;28;20239;-18
2022/05/02 12:42:47;;;;;;;4.00;3.20;;;;;;;;;;4999035;28;20238;-20
2022/05/02 12:45:16;;;;;;;4.05;3.65;;;;;;;;;;5000868;28;20232;-19
2022/05/02 12:47:46;;;;;;;3.67;3.28;;;;;;;;;;5009718;28;20269;-20
2022/05/02 12:50:16;;;;;;;3.65;3.25;;;;;;;;;;4998607;28;20244;-20
2022/05/02 12:52:44;;;;;;;4.60;3.35;;;;;;;;;;5002496;28;20235;-20
2022/05/02 12:55:11;;;;;;;3.22;2.92;;;;;;;;;;5000883;28;20227;-19
2022/05/02 13:00:32;;;;;;;3.42;3.13;;;;;;;;;;5002020;28;20235;-19
2022/05/02 13:03:00;;;;;;;4.30;3.90;;;;;;;;;;5006220;28;20228;-20
2022/05/02 13:05:29;;;;;;;4.45;3.90;;;;;;;;;;5004412;28;20623;-20
2022/05/02 13:07:57;;;;;;;4.00;3.60;;;;;;;;;;5003456;28;20299;-20
2022/05/02 13:10:25;;;;;;;3.80;3.40;;;;;;;;;;5004798;28;21035;-20
2022/05/02 13:12:58;;;;;;;3.88;3.47;;;;;;;;;;5005529;28;20239;-20
2022/05/02 13:15:25;;;;;;;4.50;3.40;;;;;;;;;;5003403;28;20232;-20
2022/05/02 13:17:56;;;;;;;3.42;3.13;;;;;;;;;;5004539;28;20232;-20
2022/05/02 13:20:44;;;;;;;3.95;3.20;;;;;;;;;;5004704;28;20236;-20
2022/05/02 13:23:13;;;;;;;3.67;3.22;;;;;;;;;;5005006;28;20715;-19
2022/05/02 13:25:53;;;;;;;4.38;3.65;;;;;;;;;;5001908;28;20802;-20
2022/05/02 13:28:25;;;;;;;4.07;3.67;;;;;;;;;;5002138;28;20224;-20
2022/05/02 13:30:53;;;;;;;4.53;3.70;;;;;;;;;;5002849;28;20252;-20
2022/05/02 13:33:21;;;;;;;4.68;3.97;;;;;;;;;;5004391;28;20228;-20
2022/05/02 13:35:49;;;;;;;4.40;4.00;;;;;;;;;;5004921;28;20612;-18
2022/05/02 13:38:19;;;;;;;4.57;3.72;;;;;;;;;;5005346;28;20236;-18
2022/05/02 13:40:50;;;;;;;4.50;3.67;;;;;;;;;;5009680;28;20254;-18
2022/05/02 13:43:19;;;;;;;5.15;3.80;;;;;;;;;;5002744;28;20234;-18
2022/05/02 13:45:50;;;;;;;4.18;3.30;;;;;;;;;;5003909;28;20224;-20
2022/05/02 13:48:22;;;;;;;4.25;3.72;;;;;;;;;;5004915;28;20231;-18
2022/05/02 13:50:52;;;;;;;3.85;3.53;;;;;;;;;;5001807;28;20248;-19
2022/05/02 13:53:26;;;;;;;5.57;3.88;;;;;;;;;;5005351;28;20236;-21
2022/05/02 13:56:07;;;;;;;4.03;3.63;;;;;;;;;;5002244;28;20231;-20
2022/05/02 13:58:52;;;;;;;4.35;3.92;;;;;;;;;;5003445;28;20240;-20
2022/05/02 14:01:34;;;;;;;3.80;3.50;;;;;;;;;;4992739;28;20236;-20
2022/05/02 14:04:12;;;;;;;5.95;3.78;;;;;;;;;;5003169;28;20232;-20
2022/05/02 14:06:55;;;;;;;4.18;3.63;;;;;;;;;;5004547;28;20231;-20
2022/05/02 14:09:32;;;;;;;6.32;3.65;;;;;;;;;;5005530;28;20619;-20
2022/05/02 14:12:00;;;;;;;4.13;3.72;;;;;;;;;;5002401;28;20327;-20
2022/05/02 14:14:29;;;;;;;3.92;3.63;;;;;;;;;;5002938;28;20231;-20
2022/05/02 14:16:58;;;;;;;3.78;3.20;;;;;;;;;;5000842;28;20360;-20
2022/05/02 14:19:25;;;;;;;6.03;3.78;;;;;;;;;;5003571;28;20343;-20
2022/05/02 14:21:54;;;;;;;4.32;3.92;;;;;;;;;;5001032;28;20255;-20
2022/05/02 14:24:22;;;;;;;4.10;3.70;;;;;;;;;;5003805;28;20239;-20
2022/05/02 14:26:55;;;;;;;4.50;4.10;;;;;;;;;;5004672;28;20235;-20
2022/05/02 14:29:23;;;;;;;4.20;3.80;;;;;;;;;;5001598;28;21005;-19
2022/05/02 14:31:50;;;;;;;4.38;3.30;;;;;;;;;;5002033;28;20241;-20
2022/05/02 14:34:19;;;;;;;4.60;3.92;;;;;;;;;;5004309;28;20235;-20
2022/05/02 14:36:46;;;;;;;4.35;3.95;;;;;;;;;;5000623;28;20271;-20
2022/05/02 14:39:14;;;;;;;4.60;3.58;;;;;;;;;;5007624;28;20265;-20
2022/05/02 14:41:43;;;;;;;4.63;3.70;;;;;;;;;;5000869;28;20231;-20
2022/05/02 14:44:12;;;;;;;4.00;3.40;;;;;;;;;;5003444;28;21009;-20
2022/05/02 14:46:40;;;;;;;4.43;3.83;;;;;;;;;;5001992;28;20251;-18
2022/05/02 14:49:07;;;;;;;4.53;3.92;;;;;;;;;;5004887;28;20242;-18
2022/05/02 14:51:38;;;;;;;3.80;3.50;;;;;;;;;;5004623;28;20230;-20
2022/05/02 14:54:06;;;;;;;4.72;3.75;;;;;;;;;;5003118;28;20264;-20
2022/05/02 14:56:36;;;;;;;4.35;3.40;;;;;;;;;;5001884;28;20228;-20
2022/05/02 14:59:03;;;;;;;4.35;3.75;;;;;;;;;;5002347;28;20236;-20
2022/05/02 15:01:31;;;;;;;4.30;3.45;;;;;;;;;;5003554;28;20888;-20
2022/05/02 15:03:58;;;;;;;3.65;3.35;;;;;;;;;;5004587;28;20228;-20
2022/05/02 15:06:26;;;;;;;3.58;3.28;;;;;;;;;;5000245;28;20250;-20
2022/05/02 15:09:05;;;;;;;4.07;3.65;;;;;;;;;;5000737;28;20278;-19
2022/05/02 15:11:34;;;;;;;4.90;3.15;;;;;;;;;;4999604;28;20241;-19
2022/05/02 15:14:09;;;;;;;6.47;3.65;;;;;;;;;;5004510;28;20243;-19
2022/05/02 15:16:38;;;;;;;4.80;2.95;;;;;;;;;;5002897;28;20236;-19
2022/05/02 15:22:07;;;;;;;4.03;3.60;;;;;;;;;;5004937;28;20243;-19
2022/05/02 15:24:46;;;;;;;4.32;3.40;;;;;;;;;;5002044;28;20234;-19
2022/05/02 15:36:39;;;;;;;4.13;3.25;;;;;;;;;;4999728;28;20323;-19
2022/05/02 15:38:30;;;;;;;4.35;3.42;;;;;;;;;;5004365;28;20242;-20
2022/05/02 15:40:59;;;;;;;4.75;3.58;;;;;;;;;;5000849;28;20247;-20
2022/05/02 15:43:30;;;;;;;3.15;2.88;;;;;;;;;;5000285;28;20242;-20
2022/05/02 15:45:58;;;;;;;4.13;3.55;;;;;;;;;;5000813;28;20224;-19